sensor_id;sensor_type;location;lat;lon;timestamp;temperature;humidity
35497;DHT22;21609;49.298;6.844;2023-04-29T00:00:38;19.10;54.40
35497;DHT22;21609;49.298;6.844;2023-04-29T00:03:04;19.10;54.40
35497;DHT22;21609;49.298;6.844;2023-04-29T00:05:29;19.10;54.40
35497;DHT22;21609;49.298;6.844;2023-04-29T00:07:55;19.10;54.40
35497;DHT22;21609;49.298;6.844;2023-04-29T00:10:21;19.10;54.40
35497;DHT22;21609;49.298;6.844;2023-04-29T00:12:46;19.10;54.40
35497;DHT22;21609;49.298;6.844;2023-04-29T00:15:13;19.10;54.40
35497;DHT22;21609;49.298;6.844;2023-04-29T00:17:38;19.10;54.40
35497;DHT22;21609;49.298;6.844;2023-04-29T00:20:04;19.10;54.40
35497;DHT22;21609;49.298;6.844;2023-04-29T00:22:30;19.10;54.50
35497;DHT22;21609;49.298;6.844;2023-04-29T00:24:56;19.10;54.50
35497;DHT22;21609;49.298;6.844;2023-04-29T00:27:21;19.10;54.50
35497;DHT22;21609;49.298;6.844;2023-04-29T00:29:47;19.10;54.50
35497;DHT22;21609;49.298;6.844;2023-04-29T00:32:12;19.00;54.40
35497;DHT22;21609;49.298;6.844;2023-04-29T00:34:38;19.00;54.40
35497;DHT22;21609;49.298;6.844;2023-04-29T00:37:03;19.10;54.50
35497;DHT22;21609;49.298;6.844;2023-04-29T00:39:29;19.00;54.50
35497;DHT22;21609;49.298;6.844;2023-04-29T00:41:54;19.00;54.50
35497;DHT22;21609;49.298;6.844;2023-04-29T00:44:20;19.00;54.50
35497;DHT22;21609;49.298;6.844;2023-04-29T00:46:46;19.00;54.40
35497;DHT22;21609;49.298;6.844;2023-04-29T00:49:12;19.00;54.50
35497;DHT22;21609;49.298;6.844;2023-04-29T00:51:39;19.00;54.50
35497;DHT22;21609;49.298;6.844;2023-04-29T00:54:06;19.00;54.50
35497;DHT22;21609;49.298;6.844;2023-04-29T00:56:34;19.00;54.50
35497;DHT22;21609;49.298;6.844;2023-04-29T00:59:01;19.00;54.50
35497;DHT22;21609;49.298;6.844;2023-04-29T01:01:29;19.00;54.50
35497;DHT22;21609;49.298;6.844;2023-04-29T01:03:55;19.00;54.60
35497;DHT22;21609;49.298;6.844;2023-04-29T01:09:51;18.90;54.50
35497;DHT22;21609;49.298;6.844;2023-04-29T01:18:25;18.90;54.50
35497;DHT22;21609;49.298;6.844;2023-04-29T01:20:26;18.90;54.50
35497;DHT22;21609;49.298;6.844;2023-04-29T01:22:52;18.90;54.50
35497;DHT22;21609;49.298;6.844;2023-04-29T01:25:18;18.90;54.50
35497;DHT22;21609;49.298;6.844;2023-04-29T01:28:13;18.90;54.60
35497;DHT22;21609;49.298;6.844;2023-04-29T01:31:13;18.90;54.50
35497;DHT22;21609;49.298;6.844;2023-04-29T01:33:51;18.90;54.50
35497;DHT22;21609;49.298;6.844;2023-04-29T01:36:36;18.90;54.60
35497;DHT22;21609;49.298;6.844;2023-04-29T01:44:54;18.90;54.60
35497;DHT22;21609;49.298;6.844;2023-04-29T01:47:20;18.90;54.60
35497;DHT22;21609;49.298;6.844;2023-04-29T01:49:46;18.90;54.60
35497;DHT22;21609;49.298;6.844;2023-04-29T01:52:12;18.80;54.50
35497;DHT22;21609;49.298;6.844;2023-04-29T01:54:37;18.80;54.60
35497;DHT22;21609;49.298;6.844;2023-04-29T01:57:03;18.80;54.60
35497;DHT22;21609;49.298;6.844;2023-04-29T01:59:29;18.90;54.60
35497;DHT22;21609;49.298;6.844;2023-04-29T02:01:55;18.80;54.60
35497;DHT22;21609;49.298;6.844;2023-04-29T02:04:23;18.80;54.60
35497;DHT22;21609;49.298;6.844;2023-04-29T02:06:49;18.80;54.60
35497;DHT22;21609;49.298;6.844;2023-04-29T02:09:16;18.80;54.60
35497;DHT22;21609;49.298;6.844;2023-04-29T02:11:42;18.80;54.60
35497;DHT22;21609;49.298;6.844;2023-04-29T02:14:07;18.80;54.60
35497;DHT22;21609;49.298;6.844;2023-04-29T02:16:33;18.80;54.60
35497;DHT22;21609;49.298;6.844;2023-04-29T02:18:58;18.80;54.60
35497;DHT22;21609;49.298;6.844;2023-04-29T02:21:24;18.80;54.60
35497;DHT22;21609;49.298;6.844;2023-04-29T02:23:49;18.80;54.60
35497;DHT22;21609;49.298;6.844;2023-04-29T02:26:15;18.70;54.60
35497;DHT22;21609;49.298;6.844;2023-04-29T02:28:41;18.80;54.70
35497;DHT22;21609;49.298;6.844;2023-04-29T02:31:07;18.80;54.60
35497;DHT22;21609;49.298;6.844;2023-04-29T02:33:32;18.70;54.60
35497;DHT22;21609;49.298;6.844;2023-04-29T02:35:58;18.70;54.60
35497;DHT22;21609;49.298;6.844;2023-04-29T02:38:24;18.80;54.60
35497;DHT22;21609;49.298;6.844;2023-04-29T02:40:50;18.80;54.70
35497;DHT22;21609;49.298;6.844;2023-04-29T02:43:16;18.80;54.60
35497;DHT22;21609;49.298;6.844;2023-04-29T02:45:42;18.70;54.60
35497;DHT22;21609;49.298;6.844;2023-04-29T02:48:07;18.80;54.60
35497;DHT22;21609;49.298;6.844;2023-04-29T02:50:33;18.70;54.60
35497;DHT22;21609;49.298;6.844;2023-04-29T02:52:58;18.70;54.60
35497;DHT22;21609;49.298;6.844;2023-04-29T02:55:24;18.80;54.60
35497;DHT22;21609;49.298;6.844;2023-04-29T02:57:51;18.70;54.60
35497;DHT22;21609;49.298;6.844;2023-04-29T03:00:17;18.70;54.60
35497;DHT22;21609;49.298;6.844;2023-04-29T03:02:42;18.70;54.70
35497;DHT22;21609;49.298;6.844;2023-04-29T03:05:08;18.70;54.60
35497;DHT22;21609;49.298;6.844;2023-04-29T03:07:34;18.70;54.60
35497;DHT22;21609;49.298;6.844;2023-04-29T03:10:00;18.70;54.60
35497;DHT22;21609;49.298;6.844;2023-04-29T03:12:26;18.70;54.70
35497;DHT22;21609;49.298;6.844;2023-04-29T03:14:51;18.70;54.60
35497;DHT22;21609;49.298;6.844;2023-04-29T03:17:17;18.70;54.60
35497;DHT22;21609;49.298;6.844;2023-04-29T03:19:43;18.70;54.70
35497;DHT22;21609;49.298;6.844;2023-04-29T03:22:09;18.60;55.20
35497;DHT22;21609;49.298;6.844;2023-04-29T03:24:36;18.70;54.90
35497;DHT22;21609;49.298;6.844;2023-04-29T03:27:02;18.60;54.70
35497;DHT22;21609;49.298;6.844;2023-04-29T03:29:29;18.70;54.70
35497;DHT22;21609;49.298;6.844;2023-04-29T03:31:55;18.60;54.60
35497;DHT22;21609;49.298;6.844;2023-04-29T03:34:21;18.60;54.60
35497;DHT22;21609;49.298;6.844;2023-04-29T03:36:47;18.60;54.60
35497;DHT22;21609;49.298;6.844;2023-04-29T03:39:12;18.60;54.60
35497;DHT22;21609;49.298;6.844;2023-04-29T03:41:38;18.60;54.70
35497;DHT22;21609;49.298;6.844;2023-04-29T03:44:04;18.60;54.70
35497;DHT22;21609;49.298;6.844;2023-04-29T03:46:30;18.60;54.60
35497;DHT22;21609;49.298;6.844;2023-04-29T03:48:56;18.60;54.60
35497;DHT22;21609;49.298;6.844;2023-04-29T03:51:22;18.60;54.70
35497;DHT22;21609;49.298;6.844;2023-04-29T03:53:48;18.60;54.60
35497;DHT22;21609;49.298;6.844;2023-04-29T03:56:14;18.60;54.70
35497;DHT22;21609;49.298;6.844;2023-04-29T03:58:40;18.60;54.70
35497;DHT22;21609;49.298;6.844;2023-04-29T04:01:06;18.60;54.70
35497;DHT22;21609;49.298;6.844;2023-04-29T04:03:31;18.60;54.70
35497;DHT22;21609;49.298;6.844;2023-04-29T04:05:57;18.60;54.70
35497;DHT22;21609;49.298;6.844;2023-04-29T04:08:22;18.60;54.70
35497;DHT22;21609;49.298;6.844;2023-04-29T04:10:48;18.60;54.70
35497;DHT22;21609;49.298;6.844;2023-04-29T04:13:14;18.50;54.60
35497;DHT22;21609;49.298;6.844;2023-04-29T04:15:39;18.50;54.70
35497;DHT22;21609;49.298;6.844;2023-04-29T04:18:05;18.50;54.60
35497;DHT22;21609;49.298;6.844;2023-04-29T04:20:31;18.50;54.70
35497;DHT22;21609;49.298;6.844;2023-04-29T04:22:56;18.50;54.70
35497;DHT22;21609;49.298;6.844;2023-04-29T04:25:22;18.50;54.70
35497;DHT22;21609;49.298;6.844;2023-04-29T04:27:47;18.50;54.70
35497;DHT22;21609;49.298;6.844;2023-04-29T04:30:13;18.50;54.70
35497;DHT22;21609;49.298;6.844;2023-04-29T04:32:38;18.50;54.70
35497;DHT22;21609;49.298;6.844;2023-04-29T04:35:05;18.50;54.70
35497;DHT22;21609;49.298;6.844;2023-04-29T04:37:31;18.50;54.70
35497;DHT22;21609;49.298;6.844;2023-04-29T04:39:56;18.50;54.70
35497;DHT22;21609;49.298;6.844;2023-04-29T04:42:22;18.50;54.70
35497;DHT22;21609;49.298;6.844;2023-04-29T04:44:48;18.50;54.70
35497;DHT22;21609;49.298;6.844;2023-04-29T04:47:13;18.50;54.70
35497;DHT22;21609;49.298;6.844;2023-04-29T04:49:39;18.50;54.70
35497;DHT22;21609;49.298;6.844;2023-04-29T04:52:04;18.50;54.70
35497;DHT22;21609;49.298;6.844;2023-04-29T04:54:30;18.50;54.70
35497;DHT22;21609;49.298;6.844;2023-04-29T04:56:56;18.50;54.70
35497;DHT22;21609;49.298;6.844;2023-04-29T04:59:21;18.50;54.70
35497;DHT22;21609;49.298;6.844;2023-04-29T05:01:47;18.50;54.70
35497;DHT22;21609;49.298;6.844;2023-04-29T05:04:12;18.50;54.70
35497;DHT22;21609;49.298;6.844;2023-04-29T05:06:39;18.40;54.70
35497;DHT22;21609;49.298;6.844;2023-04-29T05:09:05;18.40;54.60
35497;DHT22;21609;49.298;6.844;2023-04-29T05:11:31;18.50;54.70
35497;DHT22;21609;49.298;6.844;2023-04-29T05:13:56;18.40;54.70
35497;DHT22;21609;49.298;6.844;2023-04-29T05:16:22;18.40;54.70
35497;DHT22;21609;49.298;6.844;2023-04-29T05:18:47;18.40;54.70
35497;DHT22;21609;49.298;6.844;2023-04-29T05:21:13;18.40;54.70
35497;DHT22;21609;49.298;6.844;2023-04-29T05:23:38;18.40;54.70
35497;DHT22;21609;49.298;6.844;2023-04-29T05:26:04;18.40;54.70
35497;DHT22;21609;49.298;6.844;2023-04-29T05:28:30;18.40;54.70
35497;DHT22;21609;49.298;6.844;2023-04-29T05:30:55;18.40;54.80
35497;DHT22;21609;49.298;6.844;2023-04-29T05:33:21;18.40;54.80
35497;DHT22;21609;49.298;6.844;2023-04-29T05:35:47;18.40;54.80
35497;DHT22;21609;49.298;6.844;2023-04-29T05:38:12;18.40;54.80
35497;DHT22;21609;49.298;6.844;2023-04-29T05:40:38;18.40;54.80
35497;DHT22;21609;49.298;6.844;2023-04-29T05:43:04;18.40;54.90
35497;DHT22;21609;49.298;6.844;2023-04-29T05:45:29;18.40;54.80
35497;DHT22;21609;49.298;6.844;2023-04-29T05:47:55;18.40;54.80
35497;DHT22;21609;49.298;6.844;2023-04-29T05:50:20;18.40;54.80
35497;DHT22;21609;49.298;6.844;2023-04-29T05:52:46;18.40;54.80
35497;DHT22;21609;49.298;6.844;2023-04-29T05:55:11;18.40;54.70
35497;DHT22;21609;49.298;6.844;2023-04-29T05:57:37;18.40;54.80
35497;DHT22;21609;49.298;6.844;2023-04-29T06:00:03;18.40;54.80
35497;DHT22;21609;49.298;6.844;2023-04-29T06:02:29;18.40;54.80
35497;DHT22;21609;49.298;6.844;2023-04-29T06:04:55;18.40;54.80
35497;DHT22;21609;49.298;6.844;2023-04-29T06:07:20;18.40;54.80
35497;DHT22;21609;49.298;6.844;2023-04-29T06:09:47;18.40;54.80
35497;DHT22;21609;49.298;6.844;2023-04-29T06:12:12;18.40;54.80
35497;DHT22;21609;49.298;6.844;2023-04-29T06:14:38;18.30;54.80
35497;DHT22;21609;49.298;6.844;2023-04-29T06:17:03;18.40;54.90
35497;DHT22;21609;49.298;6.844;2023-04-29T06:19:29;18.30;54.80
35497;DHT22;21609;49.298;6.844;2023-04-29T06:21:56;18.30;55.40
35497;DHT22;21609;49.298;6.844;2023-04-29T06:24:23;18.30;54.80
35497;DHT22;21609;49.298;6.844;2023-04-29T06:26:48;18.30;54.80
35497;DHT22;21609;49.298;6.844;2023-04-29T06:29:14;18.30;54.80
35497;DHT22;21609;49.298;6.844;2023-04-29T06:31:39;18.30;54.80
35497;DHT22;21609;49.298;6.844;2023-04-29T06:34:05;18.30;54.80
35497;DHT22;21609;49.298;6.844;2023-04-29T06:36:30;18.30;54.80
35497;DHT22;21609;49.298;6.844;2023-04-29T06:38:56;18.30;54.80
35497;DHT22;21609;49.298;6.844;2023-04-29T06:41:22;18.30;54.80
35497;DHT22;21609;49.298;6.844;2023-04-29T06:43:48;18.30;54.80
35497;DHT22;21609;49.298;6.844;2023-04-29T06:46:13;18.30;54.80
35497;DHT22;21609;49.298;6.844;2023-04-29T06:48:39;18.30;54.80
35497;DHT22;21609;49.298;6.844;2023-04-29T06:51:04;18.30;54.80
35497;DHT22;21609;49.298;6.844;2023-04-29T06:53:30;18.30;54.80
35497;DHT22;21609;49.298;6.844;2023-04-29T06:55:55;18.30;54.80
35497;DHT22;21609;49.298;6.844;2023-04-29T06:58:21;18.30;54.80
35497;DHT22;21609;49.298;6.844;2023-04-29T07:00:48;18.30;54.80
35497;DHT22;21609;49.298;6.844;2023-04-29T07:03:15;18.30;54.90
35497;DHT22;21609;49.298;6.844;2023-04-29T07:05:41;18.30;54.80
35497;DHT22;21609;49.298;6.844;2023-04-29T07:08:09;18.30;54.80
35497;DHT22;21609;49.298;6.844;2023-04-29T07:10:35;18.30;54.80
35497;DHT22;21609;49.298;6.844;2023-04-29T07:13:01;18.30;54.80
35497;DHT22;21609;49.298;6.844;2023-04-29T07:15:27;18.30;54.80
35497;DHT22;21609;49.298;6.844;2023-04-29T07:17:53;18.30;54.80
35497;DHT22;21609;49.298;6.844;2023-04-29T07:20:18;18.30;54.70
35497;DHT22;21609;49.298;6.844;2023-04-29T07:22:44;18.30;54.80
35497;DHT22;21609;49.298;6.844;2023-04-29T07:25:10;18.30;54.70
35497;DHT22;21609;49.298;6.844;2023-04-29T07:27:36;18.30;54.70
35497;DHT22;21609;49.298;6.844;2023-04-29T07:30:02;18.30;54.70
35497;DHT22;21609;49.298;6.844;2023-04-29T07:32:28;18.30;54.70
35497;DHT22;21609;49.298;6.844;2023-04-29T07:34:56;18.30;54.70
35497;DHT22;21609;49.298;6.844;2023-04-29T07:37:22;18.30;54.80
35497;DHT22;21609;49.298;6.844;2023-04-29T07:39:47;18.30;54.80
35497;DHT22;21609;49.298;6.844;2023-04-29T07:42:13;18.30;54.70
35497;DHT22;21609;49.298;6.844;2023-04-29T07:44:38;18.30;54.70
35497;DHT22;21609;49.298;6.844;2023-04-29T07:47:04;18.30;54.70
35497;DHT22;21609;49.298;6.844;2023-04-29T07:49:30;18.30;54.70
35497;DHT22;21609;49.298;6.844;2023-04-29T07:51:56;18.30;54.70
35497;DHT22;21609;49.298;6.844;2023-04-29T07:54:21;18.30;54.70
35497;DHT22;21609;49.298;6.844;2023-04-29T07:56:48;18.20;54.60
35497;DHT22;21609;49.298;6.844;2023-04-29T07:59:14;18.20;54.60
35497;DHT22;21609;49.298;6.844;2023-04-29T08:01:40;18.20;54.70
35497;DHT22;21609;49.298;6.844;2023-04-29T08:04:05;18.20;54.60
35497;DHT22;21609;49.298;6.844;2023-04-29T08:06:31;18.30;54.70
35497;DHT22;21609;49.298;6.844;2023-04-29T08:08:57;18.20;54.70
35497;DHT22;21609;49.298;6.844;2023-04-29T08:11:22;18.20;54.60
35497;DHT22;21609;49.298;6.844;2023-04-29T08:13:49;18.20;54.90
35497;DHT22;21609;49.298;6.844;2023-04-29T08:16:15;18.20;55.10
35497;DHT22;21609;49.298;6.844;2023-04-29T08:18:41;18.20;55.00
35497;DHT22;21609;49.298;6.844;2023-04-29T08:21:07;18.20;54.80
35497;DHT22;21609;49.298;6.844;2023-04-29T08:23:33;18.20;55.20
35497;DHT22;21609;49.298;6.844;2023-04-29T08:25:59;18.20;55.40
35497;DHT22;21609;49.298;6.844;2023-04-29T08:28:25;18.30;55.40
35497;DHT22;21609;49.298;6.844;2023-04-29T08:30:52;18.30;55.60
35497;DHT22;21609;49.298;6.844;2023-04-29T08:33:17;18.30;55.60
35497;DHT22;21609;49.298;6.844;2023-04-29T08:35:43;18.30;56.10
35497;DHT22;21609;49.298;6.844;2023-04-29T08:38:09;18.30;56.00
35497;DHT22;21609;49.298;6.844;2023-04-29T08:40:43;18.30;55.60
35497;DHT22;21609;49.298;6.844;2023-04-29T08:43:15;18.30;55.40
35497;DHT22;21609;49.298;6.844;2023-04-29T08:45:42;18.20;55.40
35497;DHT22;21609;49.298;6.844;2023-04-29T08:48:08;18.20;55.20
35497;DHT22;21609;49.298;6.844;2023-04-29T08:50:38;18.20;55.20
35497;DHT22;21609;49.298;6.844;2023-04-29T08:53:08;18.20;55.10
35497;DHT22;21609;49.298;6.844;2023-04-29T08:55:35;18.20;55.10
35497;DHT22;21609;49.298;6.844;2023-04-29T08:58:02;18.20;55.10
35497;DHT22;21609;49.298;6.844;2023-04-29T09:00:31;18.20;55.10
35497;DHT22;21609;49.298;6.844;2023-04-29T09:02:57;18.20;55.20
35497;DHT22;21609;49.298;6.844;2023-04-29T09:05:25;18.20;55.10
35497;DHT22;21609;49.298;6.844;2023-04-29T09:07:51;18.20;55.00
35497;DHT22;21609;49.298;6.844;2023-04-29T09:10:17;18.20;55.00
35497;DHT22;21609;49.298;6.844;2023-04-29T09:12:43;18.20;55.00
35497;DHT22;21609;49.298;6.844;2023-04-29T09:15:09;18.20;55.00
35497;DHT22;21609;49.298;6.844;2023-04-29T09:17:39;18.20;55.00
35497;DHT22;21609;49.298;6.844;2023-04-29T09:20:27;18.20;54.90
35497;DHT22;21609;49.298;6.844;2023-04-29T09:22:53;18.20;54.90
35497;DHT22;21609;49.298;6.844;2023-04-29T09:25:19;18.20;55.00
35497;DHT22;21609;49.298;6.844;2023-04-29T09:27:46;18.20;54.90
35497;DHT22;21609;49.298;6.844;2023-04-29T09:30:12;18.20;54.90
35497;DHT22;21609;49.298;6.844;2023-04-29T09:32:40;18.20;55.00
35497;DHT22;21609;49.298;6.844;2023-04-29T09:35:25;18.20;54.90
35497;DHT22;21609;49.298;6.844;2023-04-29T09:38:12;18.20;54.90
35497;DHT22;21609;49.298;6.844;2023-04-29T09:40:39;18.20;54.80
35497;DHT22;21609;49.298;6.844;2023-04-29T09:43:14;18.20;55.10
35497;DHT22;21609;49.298;6.844;2023-04-29T09:45:43;18.20;55.00
35497;DHT22;21609;49.298;6.844;2023-04-29T09:48:09;18.20;55.00
35497;DHT22;21609;49.298;6.844;2023-04-29T09:50:36;18.10;54.90
35497;DHT22;21609;49.298;6.844;2023-04-29T09:53:02;18.10;54.90
35497;DHT22;21609;49.298;6.844;2023-04-29T09:55:28;18.20;54.90
35497;DHT22;21609;49.298;6.844;2023-04-29T09:57:57;18.10;54.80
35497;DHT22;21609;49.298;6.844;2023-04-29T10:00:23;18.10;55.20
35497;DHT22;21609;49.298;6.844;2023-04-29T10:02:50;18.20;54.90
35497;DHT22;21609;49.298;6.844;2023-04-29T10:05:18;18.10;55.10
35497;DHT22;21609;49.298;6.844;2023-04-29T10:07:45;18.10;54.90
35497;DHT22;21609;49.298;6.844;2023-04-29T10:10:11;18.10;54.90
35497;DHT22;21609;49.298;6.844;2023-04-29T10:12:39;18.10;55.20
35497;DHT22;21609;49.298;6.844;2023-04-29T10:15:11;18.10;55.20
35497;DHT22;21609;49.298;6.844;2023-04-29T10:17:45;18.10;54.80
35497;DHT22;21609;49.298;6.844;2023-04-29T10:20:14;18.10;55.90
35497;DHT22;21609;49.298;6.844;2023-04-29T10:22:48;18.10;55.40
35497;DHT22;21609;49.298;6.844;2023-04-29T10:25:21;18.10;55.00
35497;DHT22;21609;49.298;6.844;2023-04-29T10:27:48;18.10;55.20
35497;DHT22;21609;49.298;6.844;2023-04-29T10:30:17;18.20;55.60
35497;DHT22;21609;49.298;6.844;2023-04-29T10:32:44;18.10;55.20
35497;DHT22;21609;49.298;6.844;2023-04-29T10:35:11;18.10;55.20
35497;DHT22;21609;49.298;6.844;2023-04-29T10:37:41;18.20;55.60
35497;DHT22;21609;49.298;6.844;2023-04-29T10:40:30;18.20;55.30
35497;DHT22;21609;49.298;6.844;2023-04-29T10:42:59;18.10;55.80
35497;DHT22;21609;49.298;6.844;2023-04-29T10:45:29;18.10;55.30
35497;DHT22;21609;49.298;6.844;2023-04-29T10:53:13;18.10;55.50
35497;DHT22;21609;49.298;6.844;2023-04-29T10:55:39;18.10;55.90
35497;DHT22;21609;49.298;6.844;2023-04-29T11:00:58;18.10;55.80
35497;DHT22;21609;49.298;6.844;2023-04-29T11:03:45;18.10;55.80
35497;DHT22;21609;49.298;6.844;2023-04-29T11:06:12;18.10;55.30
35497;DHT22;21609;49.298;6.844;2023-04-29T11:08:38;18.10;55.50
35497;DHT22;21609;49.298;6.844;2023-04-29T11:11:08;18.10;55.90
35497;DHT22;21609;49.298;6.844;2023-04-29T11:13:38;18.20;56.10
35497;DHT22;21609;49.298;6.844;2023-04-29T11:16:10;18.20;56.30
35497;DHT22;21609;49.298;6.844;2023-04-29T11:19:03;18.30;56.30
35497;DHT22;21609;49.298;6.844;2023-04-29T11:21:29;18.30;56.40
35497;DHT22;21609;49.298;6.844;2023-04-29T11:23:57;18.30;56.40
35497;DHT22;21609;49.298;6.844;2023-04-29T11:26:23;18.30;56.40
35497;DHT22;21609;49.298;6.844;2023-04-29T11:28:50;18.30;56.60
35497;DHT22;21609;49.298;6.844;2023-04-29T11:31:16;18.30;57.00
35497;DHT22;21609;49.298;6.844;2023-04-29T11:33:42;18.30;57.10
35497;DHT22;21609;49.298;6.844;2023-04-29T11:36:10;18.30;57.20
35497;DHT22;21609;49.298;6.844;2023-04-29T11:38:39;18.30;57.10
35497;DHT22;21609;49.298;6.844;2023-04-29T11:41:05;18.30;57.20
35497;DHT22;21609;49.298;6.844;2023-04-29T11:43:30;18.30;57.20
35497;DHT22;21609;49.298;6.844;2023-04-29T11:45:56;18.30;56.40
35497;DHT22;21609;49.298;6.844;2023-04-29T11:48:23;18.30;57.10
35497;DHT22;21609;49.298;6.844;2023-04-29T11:50:52;18.30;57.60
35497;DHT22;21609;49.298;6.844;2023-04-29T11:53:23;18.30;57.70
35497;DHT22;21609;49.298;6.844;2023-04-29T11:55:51;18.30;57.60
35497;DHT22;21609;49.298;6.844;2023-04-29T11:58:17;18.30;57.10
35497;DHT22;21609;49.298;6.844;2023-04-29T12:00:46;18.30;57.00
35497;DHT22;21609;49.298;6.844;2023-04-29T12:03:16;18.30;56.90
35497;DHT22;21609;49.298;6.844;2023-04-29T12:05:49;18.30;57.40
35497;DHT22;21609;49.298;6.844;2023-04-29T12:08:19;18.30;57.80
35497;DHT22;21609;49.298;6.844;2023-04-29T12:10:46;18.30;57.10
35497;DHT22;21609;49.298;6.844;2023-04-29T12:13:12;18.30;56.90
35497;DHT22;21609;49.298;6.844;2023-04-29T12:15:38;18.30;56.80
35497;DHT22;21609;49.298;6.844;2023-04-29T12:18:04;18.30;56.80
35497;DHT22;21609;49.298;6.844;2023-04-29T12:20:30;18.30;56.90
35497;DHT22;21609;49.298;6.844;2023-04-29T12:22:55;18.30;56.90
35497;DHT22;21609;49.298;6.844;2023-04-29T12:25:26;18.20;56.70
35497;DHT22;21609;49.298;6.844;2023-04-29T12:27:58;18.20;56.60
35497;DHT22;21609;49.298;6.844;2023-04-29T12:30:24;18.20;56.70
35497;DHT22;21609;49.298;6.844;2023-04-29T12:32:51;18.20;56.60
35497;DHT22;21609;49.298;6.844;2023-04-29T12:35:16;18.20;56.20
35497;DHT22;21609;49.298;6.844;2023-04-29T12:37:42;18.20;56.40
35497;DHT22;21609;49.298;6.844;2023-04-29T12:40:13;18.30;57.20
35497;DHT22;21609;49.298;6.844;2023-04-29T12:42:40;18.20;56.50
35497;DHT22;21609;49.298;6.844;2023-04-29T12:45:06;18.30;56.20
35497;DHT22;21609;49.298;6.844;2023-04-29T12:47:32;18.30;56.00
35497;DHT22;21609;49.298;6.844;2023-04-29T12:50:00;18.30;55.90
35497;DHT22;21609;49.298;6.844;2023-04-29T12:52:25;18.30;56.20
35497;DHT22;21609;49.298;6.844;2023-04-29T12:54:51;18.30;56.00
35497;DHT22;21609;49.298;6.844;2023-04-29T12:57:16;18.30;55.80
35497;DHT22;21609;49.298;6.844;2023-04-29T12:59:42;18.30;55.80
35497;DHT22;21609;49.298;6.844;2023-04-29T13:02:07;18.30;55.90
35497;DHT22;21609;49.298;6.844;2023-04-29T13:04:33;18.30;55.90
35497;DHT22;21609;49.298;6.844;2023-04-29T13:06:58;18.30;55.90
35497;DHT22;21609;49.298;6.844;2023-04-29T13:09:27;18.30;55.70
35497;DHT22;21609;49.298;6.844;2023-04-29T13:11:53;18.30;55.70
35497;DHT22;21609;49.298;6.844;2023-04-29T13:14:19;18.30;55.60
35497;DHT22;21609;49.298;6.844;2023-04-29T13:16:44;18.30;55.80
35497;DHT22;21609;49.298;6.844;2023-04-29T13:19:10;18.30;55.60
35497;DHT22;21609;49.298;6.844;2023-04-29T13:21:37;18.30;56.20
35497;DHT22;21609;49.298;6.844;2023-04-29T13:24:02;18.30;55.90
35497;DHT22;21609;49.298;6.844;2023-04-29T13:26:28;18.30;55.60
35497;DHT22;21609;49.298;6.844;2023-04-29T13:28:54;18.30;55.60
35497;DHT22;21609;49.298;6.844;2023-04-29T13:31:20;18.30;55.70
35497;DHT22;21609;49.298;6.844;2023-04-29T13:33:45;18.30;55.70
35497;DHT22;21609;49.298;6.844;2023-04-29T13:36:12;18.30;55.70
35497;DHT22;21609;49.298;6.844;2023-04-29T13:38:38;18.30;55.80
35497;DHT22;21609;49.298;6.844;2023-04-29T13:41:04;18.30;55.60
35497;DHT22;21609;49.298;6.844;2023-04-29T13:43:30;18.30;55.70
35497;DHT22;21609;49.298;6.844;2023-04-29T13:45:56;18.30;55.60
35497;DHT22;21609;49.298;6.844;2023-04-29T13:48:21;18.30;55.80
35497;DHT22;21609;49.298;6.844;2023-04-29T13:50:48;18.30;55.70
35497;DHT22;21609;49.298;6.844;2023-04-29T13:53:13;18.30;55.50
35497;DHT22;21609;49.298;6.844;2023-04-29T13:55:41;18.30;55.50
35497;DHT22;21609;49.298;6.844;2023-04-29T13:58:06;18.30;55.60
35497;DHT22;21609;49.298;6.844;2023-04-29T14:00:32;18.30;55.60
35497;DHT22;21609;49.298;6.844;2023-04-29T14:02:58;18.30;55.60
35497;DHT22;21609;49.298;6.844;2023-04-29T14:05:23;18.30;55.40
35497;DHT22;21609;49.298;6.844;2023-04-29T14:07:49;18.30;55.40
35497;DHT22;21609;49.298;6.844;2023-04-29T14:10:16;18.30;55.60
35497;DHT22;21609;49.298;6.844;2023-04-29T14:12:41;18.30;55.50
35497;DHT22;21609;49.298;6.844;2023-04-29T14:15:07;18.30;55.60
35497;DHT22;21609;49.298;6.844;2023-04-29T14:17:33;18.30;55.60
35497;DHT22;21609;49.298;6.844;2023-04-29T14:19:58;18.30;55.70
35497;DHT22;21609;49.298;6.844;2023-04-29T14:22:24;18.30;55.50
35497;DHT22;21609;49.298;6.844;2023-04-29T14:24:51;18.40;55.70
35497;DHT22;21609;49.298;6.844;2023-04-29T14:27:16;18.40;55.70
35497;DHT22;21609;49.298;6.844;2023-04-29T14:29:42;18.40;55.70
35497;DHT22;21609;49.298;6.844;2023-04-29T14:32:08;18.40;55.70
35497;DHT22;21609;49.298;6.844;2023-04-29T14:34:33;18.40;55.60
35497;DHT22;21609;49.298;6.844;2023-04-29T14:36:59;18.40;55.60
35497;DHT22;21609;49.298;6.844;2023-04-29T14:39:24;18.50;55.60
35497;DHT22;21609;49.298;6.844;2023-04-29T14:41:51;18.50;55.60
35497;DHT22;21609;49.298;6.844;2023-04-29T14:44:16;18.50;55.70
35497;DHT22;21609;49.298;6.844;2023-04-29T14:46:42;18.50;55.60
35497;DHT22;21609;49.298;6.844;2023-04-29T14:49:08;18.50;55.60
35497;DHT22;21609;49.298;6.844;2023-04-29T14:51:33;18.50;55.60
35497;DHT22;21609;49.298;6.844;2023-04-29T14:53:59;18.50;55.60
35497;DHT22;21609;49.298;6.844;2023-04-29T14:56:25;18.50;55.50
35497;DHT22;21609;49.298;6.844;2023-04-29T14:58:51;18.50;55.50
35497;DHT22;21609;49.298;6.844;2023-04-29T15:01:17;18.50;55.50
35497;DHT22;21609;49.298;6.844;2023-04-29T15:03:42;18.50;55.50
35497;DHT22;21609;49.298;6.844;2023-04-29T15:06:08;18.50;55.50
35497;DHT22;21609;49.298;6.844;2023-04-29T15:08:34;18.50;55.50
35497;DHT22;21609;49.298;6.844;2023-04-29T15:10:59;18.50;55.50
35497;DHT22;21609;49.298;6.844;2023-04-29T15:13:25;18.50;55.50
35497;DHT22;21609;49.298;6.844;2023-04-29T15:15:50;18.50;55.50
35497;DHT22;21609;49.298;6.844;2023-04-29T15:18:16;18.50;55.50
35497;DHT22;21609;49.298;6.844;2023-04-29T15:20:41;18.50;55.50
35497;DHT22;21609;49.298;6.844;2023-04-29T15:23:07;18.50;55.40
35497;DHT22;21609;49.298;6.844;2023-04-29T15:25:33;18.50;55.40
35497;DHT22;21609;49.298;6.844;2023-04-29T15:28:00;18.50;55.40
35497;DHT22;21609;49.298;6.844;2023-04-29T15:30:26;18.60;55.40
35497;DHT22;21609;49.298;6.844;2023-04-29T15:32:52;18.50;55.40
35497;DHT22;21609;49.298;6.844;2023-04-29T15:35:18;18.50;55.40
35497;DHT22;21609;49.298;6.844;2023-04-29T15:37:44;18.50;55.40
35497;DHT22;21609;49.298;6.844;2023-04-29T15:40:10;18.50;55.40
35497;DHT22;21609;49.298;6.844;2023-04-29T15:42:35;18.60;55.40
35497;DHT22;21609;49.298;6.844;2023-04-29T15:45:01;18.50;55.30
35497;DHT22;21609;49.298;6.844;2023-04-29T15:47:26;18.50;55.30
35497;DHT22;21609;49.298;6.844;2023-04-29T15:49:52;18.50;55.30